sensor_id;sensor_type;location;lat;lon;timestamp;P1;durP1;ratioP1;P2;durP2;ratioP2
5704;SDS011;2877;48.238;11.160;2023-01-24T00:00:47;31.37;;;14.87;;
5704;SDS011;2877;48.238;11.160;2023-01-24T00:03:14;30.30;;;14.90;;
5704;SDS011;2877;48.238;11.160;2023-01-24T00:05:40;32.80;;;17.07;;
5704;SDS011;2877;48.238;11.160;2023-01-24T00:08:07;30.30;;;13.83;;
5704;SDS011;2877;48.238;11.160;2023-01-24T00:10:33;28.47;;;14.10;;
5704;SDS011;2877;48.238;11.160;2023-01-24T00:12:59;32.07;;;15.77;;
5704;SDS011;2877;48.238;11.160;2023-01-24T00:15:25;26.47;;;14.57;;
5704;SDS011;2877;48.238;11.160;2023-01-24T00:17:50;27.50;;;14.60;;
5704;SDS011;2877;48.238;11.160;2023-01-24T00:20:16;32.50;;;16.10;;
5704;SDS011;2877;48.238;11.160;2023-01-24T00:22:42;29.63;;;15.00;;
5704;SDS011;2877;48.238;11.160;2023-01-24T00:25:07;27.37;;;14.80;;
5704;SDS011;2877;48.238;11.160;2023-01-24T00:27:33;29.53;;;14.67;;
5704;SDS011;2877;48.238;11.160;2023-01-24T00:30:00;24.93;;;13.63;;
5704;SDS011;2877;48.238;11.160;2023-01-24T00:32:27;28.63;;;13.30;;
5704;SDS011;2877;48.238;11.160;2023-01-24T00:34:52;28.00;;;14.30;;
5704;SDS011;2877;48.238;11.160;2023-01-24T00:37:18;33.17;;;15.40;;
5704;SDS011;2877;48.238;11.160;2023-01-24T00:39:43;32.50;;;15.43;;
5704;SDS011;2877;48.238;11.160;2023-01-24T00:42:09;32.40;;;16.10;;
5704;SDS011;2877;48.238;11.160;2023-01-24T00:44:34;27.77;;;14.37;;
5704;SDS011;2877;48.238;11.160;2023-01-24T00:47:00;29.50;;;14.37;;
5704;SDS011;2877;48.238;11.160;2023-01-24T00:49:25;33.87;;;14.70;;
5704;SDS011;2877;48.238;11.160;2023-01-24T00:51:51;28.30;;;14.63;;
5704;SDS011;2877;48.238;11.160;2023-01-24T00:54:16;35.57;;;16.43;;
5704;SDS011;2877;48.238;11.160;2023-01-24T00:56:42;26.43;;;14.70;;
5704;SDS011;2877;48.238;11.160;2023-01-24T00:59:07;31.13;;;15.70;;
5704;SDS011;2877;48.238;11.160;2023-01-24T01:01:33;29.57;;;14.13;;
5704;SDS011;2877;48.238;11.160;2023-01-24T01:03:58;34.47;;;15.97;;
5704;SDS011;2877;48.238;11.160;2023-01-24T01:06:24;29.23;;;15.00;;
5704;SDS011;2877;48.238;11.160;2023-01-24T01:08:50;28.53;;;14.07;;
5704;SDS011;2877;48.238;11.160;2023-01-24T01:11:16;27.20;;;14.20;;
5704;SDS011;2877;48.238;11.160;2023-01-24T01:13:42;31.80;;;14.70;;
5704;SDS011;2877;48.238;11.160;2023-01-24T01:16:10;33.47;;;14.90;;
5704;SDS011;2877;48.238;11.160;2023-01-24T01:18:38;27.77;;;14.40;;
5704;SDS011;2877;48.238;11.160;2023-01-24T01:21:04;28.37;;;13.20;;
5704;SDS011;2877;48.238;11.160;2023-01-24T01:23:30;28.27;;;14.67;;
5704;SDS011;2877;48.238;11.160;2023-01-24T01:26:00;30.80;;;14.40;;
5704;SDS011;2877;48.238;11.160;2023-01-24T01:28:27;31.23;;;13.90;;
5704;SDS011;2877;48.238;11.160;2023-01-24T01:30:54;30.67;;;14.00;;
5704;SDS011;2877;48.238;11.160;2023-01-24T01:33:20;28.80;;;14.50;;
5704;SDS011;2877;48.238;11.160;2023-01-24T01:35:49;26.20;;;14.50;;
5704;SDS011;2877;48.238;11.160;2023-01-24T01:38:15;32.03;;;15.20;;
5704;SDS011;2877;48.238;11.160;2023-01-24T01:40:41;33.33;;;16.30;;
5704;SDS011;2877;48.238;11.160;2023-01-24T01:43:10;30.03;;;14.30;;
5704;SDS011;2877;48.238;11.160;2023-01-24T01:45:40;29.07;;;14.47;;
5704;SDS011;2877;48.238;11.160;2023-01-24T01:54:00;29.83;;;14.00;;
5704;SDS011;2877;48.238;11.160;2023-01-24T01:56:43;30.27;;;13.70;;
5704;SDS011;2877;48.238;11.160;2023-01-24T01:59:14;28.27;;;14.10;;
5704;SDS011;2877;48.238;11.160;2023-01-24T02:01:43;33.27;;;14.33;;
5704;SDS011;2877;48.238;11.160;2023-01-24T02:04:16;33.00;;;14.67;;
5704;SDS011;2877;48.238;11.160;2023-01-24T02:09:30;28.37;;;14.67;;
5704;SDS011;2877;48.238;11.160;2023-01-24T02:11:59;35.20;;;15.07;;
5704;SDS011;2877;48.238;11.160;2023-01-24T02:14:29;31.40;;;13.83;;
5704;SDS011;2877;48.238;11.160;2023-01-24T02:17:16;28.43;;;15.20;;
5704;SDS011;2877;48.238;11.160;2023-01-24T02:25:08;28.87;;;13.40;;
5704;SDS011;2877;48.238;11.160;2023-01-24T02:27:49;34.10;;;15.00;;
5704;SDS011;2877;48.238;11.160;2023-01-24T02:30:15;28.57;;;13.13;;
5704;SDS011;2877;48.238;11.160;2023-01-24T02:32:41;29.97;;;13.40;;
5704;SDS011;2877;48.238;11.160;2023-01-24T02:35:06;28.73;;;13.57;;
5704;SDS011;2877;48.238;11.160;2023-01-24T02:37:46;32.20;;;15.70;;
5704;SDS011;2877;48.238;11.160;2023-01-24T02:40:11;31.83;;;14.40;;
5704;SDS011;2877;48.238;11.160;2023-01-24T02:42:38;35.80;;;15.37;;
5704;SDS011;2877;48.238;11.160;2023-01-24T02:47:47;30.50;;;15.07;;
5704;SDS011;2877;48.238;11.160;2023-01-24T02:50:15;35.70;;;16.13;;
5704;SDS011;2877;48.238;11.160;2023-01-24T02:52:43;34.93;;;15.27;;
5704;SDS011;2877;48.238;11.160;2023-01-24T02:55:28;30.17;;;14.67;;
5704;SDS011;2877;48.238;11.160;2023-01-24T02:57:54;33.03;;;14.00;;
5704;SDS011;2877;48.238;11.160;2023-01-24T03:00:33;29.90;;;15.83;;
5704;SDS011;2877;48.238;11.160;2023-01-24T03:03:03;31.57;;;15.67;;
5704;SDS011;2877;48.238;11.160;2023-01-24T03:05:30;38.57;;;16.20;;
5704;SDS011;2877;48.238;11.160;2023-01-24T03:08:07;29.93;;;14.60;;
5704;SDS011;2877;48.238;11.160;2023-01-24T03:10:33;31.90;;;14.37;;
5704;SDS011;2877;48.238;11.160;2023-01-24T03:12:59;34.20;;;15.20;;
5704;SDS011;2877;48.238;11.160;2023-01-24T03:15:44;31.77;;;14.70;;
5704;SDS011;2877;48.238;11.160;2023-01-24T03:18:28;37.40;;;15.47;;
5704;SDS011;2877;48.238;11.160;2023-01-24T03:21:12;35.17;;;14.50;;
5704;SDS011;2877;48.238;11.160;2023-01-24T03:23:56;33.30;;;14.70;;
5704;SDS011;2877;48.238;11.160;2023-01-24T03:26:40;35.17;;;15.47;;
5704;SDS011;2877;48.238;11.160;2023-01-24T03:29:24;40.10;;;16.07;;
5704;SDS011;2877;48.238;11.160;2023-01-24T03:32:08;37.93;;;13.80;;
5704;SDS011;2877;48.238;11.160;2023-01-24T03:34:52;35.03;;;15.63;;
5704;SDS011;2877;48.238;11.160;2023-01-24T03:37:18;35.57;;;15.50;;
5704;SDS011;2877;48.238;11.160;2023-01-24T03:40:15;38.60;;;16.87;;
5704;SDS011;2877;48.238;11.160;2023-01-24T03:42:41;34.97;;;15.70;;
5704;SDS011;2877;48.238;11.160;2023-01-24T03:45:16;31.50;;;14.03;;
5704;SDS011;2877;48.238;11.160;2023-01-24T03:47:44;36.47;;;16.03;;
5704;SDS011;2877;48.238;11.160;2023-01-24T03:50:21;32.03;;;14.80;;
5704;SDS011;2877;48.238;11.160;2023-01-24T03:53:07;43.47;;;15.87;;
5704;SDS011;2877;48.238;11.160;2023-01-24T03:55:33;43.43;;;16.50;;
5704;SDS011;2877;48.238;11.160;2023-01-24T03:57:59;41.43;;;16.30;;
5704;SDS011;2877;48.238;11.160;2023-01-24T04:00:25;45.73;;;15.90;;
5704;SDS011;2877;48.238;11.160;2023-01-24T04:02:52;45.70;;;16.57;;
5704;SDS011;2877;48.238;11.160;2023-01-24T04:05:18;39.73;;;16.10;;
5704;SDS011;2877;48.238;11.160;2023-01-24T04:07:45;37.13;;;15.93;;
5704;SDS011;2877;48.238;11.160;2023-01-24T04:10:11;38.70;;;15.50;;
5704;SDS011;2877;48.238;11.160;2023-01-24T04:12:38;36.30;;;15.40;;
5704;SDS011;2877;48.238;11.160;2023-01-24T04:15:04;46.23;;;16.50;;
5704;SDS011;2877;48.238;11.160;2023-01-24T04:17:31;39.37;;;15.43;;
5704;SDS011;2877;48.238;11.160;2023-01-24T04:19:56;39.17;;;15.97;;
5704;SDS011;2877;48.238;11.160;2023-01-24T04:22:22;36.73;;;14.77;;
5704;SDS011;2877;48.238;11.160;2023-01-24T04:24:48;35.50;;;16.23;;
5704;SDS011;2877;48.238;11.160;2023-01-24T04:27:13;37.33;;;16.90;;
5704;SDS011;2877;48.238;11.160;2023-01-24T04:29:39;38.73;;;16.40;;
5704;SDS011;2877;48.238;11.160;2023-01-24T04:32:05;37.73;;;14.30;;
5704;SDS011;2877;48.238;11.160;2023-01-24T04:34:30;46.33;;;16.77;;
5704;SDS011;2877;48.238;11.160;2023-01-24T04:36:56;34.83;;;15.23;;
5704;SDS011;2877;48.238;11.160;2023-01-24T04:39:22;31.40;;;14.70;;
5704;SDS011;2877;48.238;11.160;2023-01-24T04:41:47;36.40;;;15.37;;
5704;SDS011;2877;48.238;11.160;2023-01-24T04:44:13;35.87;;;14.90;;
5704;SDS011;2877;48.238;11.160;2023-01-24T04:46:38;36.27;;;16.07;;
5704;SDS011;2877;48.238;11.160;2023-01-24T04:49:04;38.77;;;15.37;;
5704;SDS011;2877;48.238;11.160;2023-01-24T04:51:29;38.70;;;14.90;;
5704;SDS011;2877;48.238;11.160;2023-01-24T04:53:55;42.23;;;15.43;;
5704;SDS011;2877;48.238;11.160;2023-01-24T04:56:21;40.37;;;15.17;;
5704;SDS011;2877;48.238;11.160;2023-01-24T04:58:46;37.57;;;14.97;;
5704;SDS011;2877;48.238;11.160;2023-01-24T05:01:12;38.27;;;15.90;;
5704;SDS011;2877;48.238;11.160;2023-01-24T05:03:37;46.37;;;14.83;;
5704;SDS011;2877;48.238;11.160;2023-01-24T05:06:03;42.63;;;17.67;;
5704;SDS011;2877;48.238;11.160;2023-01-24T05:08:28;43.70;;;16.27;;
5704;SDS011;2877;48.238;11.160;2023-01-24T05:10:54;40.20;;;16.50;;
5704;SDS011;2877;48.238;11.160;2023-01-24T05:13:19;43.83;;;14.90;;
5704;SDS011;2877;48.238;11.160;2023-01-24T05:15:49;39.37;;;16.10;;
5704;SDS011;2877;48.238;11.160;2023-01-24T05:18:15;42.30;;;15.33;;
5704;SDS011;2877;48.238;11.160;2023-01-24T05:20:42;40.33;;;15.87;;
5704;SDS011;2877;48.238;11.160;2023-01-24T05:23:08;39.27;;;15.83;;
5704;SDS011;2877;48.238;11.160;2023-01-24T05:25:33;49.40;;;16.23;;
5704;SDS011;2877;48.238;11.160;2023-01-24T05:27:59;36.97;;;15.47;;
5704;SDS011;2877;48.238;11.160;2023-01-24T05:30:24;40.90;;;16.10;;
5704;SDS011;2877;48.238;11.160;2023-01-24T05:32:50;44.73;;;16.80;;
5704;SDS011;2877;48.238;11.160;2023-01-24T05:35:19;40.07;;;14.90;;
5704;SDS011;2877;48.238;11.160;2023-01-24T05:37:45;35.10;;;14.60;;
5704;SDS011;2877;48.238;11.160;2023-01-24T05:40:11;38.10;;;16.20;;
5704;SDS011;2877;48.238;11.160;2023-01-24T05:42:37;36.77;;;15.40;;
5704;SDS011;2877;48.238;11.160;2023-01-24T05:45:02;39.47;;;16.00;;
5704;SDS011;2877;48.238;11.160;2023-01-24T05:47:28;37.80;;;16.97;;
5704;SDS011;2877;48.238;11.160;2023-01-24T05:49:54;35.17;;;15.27;;
5704;SDS011;2877;48.238;11.160;2023-01-24T05:52:19;33.60;;;14.40;;
5704;SDS011;2877;48.238;11.160;2023-01-24T05:54:48;36.30;;;16.17;;
5704;SDS011;2877;48.238;11.160;2023-01-24T05:57:14;33.43;;;13.83;;
5704;SDS011;2877;48.238;11.160;2023-01-24T05:59:40;36.23;;;15.57;;
5704;SDS011;2877;48.238;11.160;2023-01-24T06:02:05;33.63;;;14.23;;
5704;SDS011;2877;48.238;11.160;2023-01-24T06:04:31;41.10;;;16.40;;
5704;SDS011;2877;48.238;11.160;2023-01-24T06:06:56;49.10;;;15.80;;
5704;SDS011;2877;48.238;11.160;2023-01-24T06:09:22;39.50;;;15.37;;
5704;SDS011;2877;48.238;11.160;2023-01-24T06:11:48;36.87;;;13.90;;
5704;SDS011;2877;48.238;11.160;2023-01-24T06:14:14;39.90;;;17.40;;
5704;SDS011;2877;48.238;11.160;2023-01-24T06:16:39;38.67;;;15.50;;
5704;SDS011;2877;48.238;11.160;2023-01-24T06:19:07;36.47;;;16.13;;
5704;SDS011;2877;48.238;11.160;2023-01-24T06:24:05;34.73;;;14.50;;
5704;SDS011;2877;48.238;11.160;2023-01-24T06:26:34;35.43;;;16.00;;
5704;SDS011;2877;48.238;11.160;2023-01-24T06:29:00;42.33;;;14.97;;
5704;SDS011;2877;48.238;11.160;2023-01-24T06:39:37;39.27;;;16.80;;
5704;SDS011;2877;48.238;11.160;2023-01-24T06:42:04;33.53;;;14.20;;
5704;SDS011;2877;48.238;11.160;2023-01-24T06:44:30;34.03;;;14.57;;
5704;SDS011;2877;48.238;11.160;2023-01-24T06:46:56;29.20;;;14.47;;
5704;SDS011;2877;48.238;11.160;2023-01-24T06:49:22;35.83;;;13.83;;
5704;SDS011;2877;48.238;11.160;2023-01-24T06:51:50;34.50;;;14.27;;
5704;SDS011;2877;48.238;11.160;2023-01-24T06:54:16;36.63;;;15.37;;
5704;SDS011;2877;48.238;11.160;2023-01-24T06:56:42;34.30;;;13.57;;
5704;SDS011;2877;48.238;11.160;2023-01-24T06:59:09;28.77;;;13.40;;
5704;SDS011;2877;48.238;11.160;2023-01-24T07:01:34;34.70;;;13.97;;
5704;SDS011;2877;48.238;11.160;2023-01-24T07:04:00;25.80;;;14.20;;
5704;SDS011;2877;48.238;11.160;2023-01-24T07:06:25;33.33;;;14.37;;
5704;SDS011;2877;48.238;11.160;2023-01-24T07:08:51;33.70;;;13.40;;
5704;SDS011;2877;48.238;11.160;2023-01-24T07:11:17;32.13;;;14.93;;
5704;SDS011;2877;48.238;11.160;2023-01-24T07:13:43;35.10;;;14.87;;
5704;SDS011;2877;48.238;11.160;2023-01-24T07:16:09;26.87;;;13.07;;
5704;SDS011;2877;48.238;11.160;2023-01-24T07:18:35;26.73;;;13.10;;
5704;SDS011;2877;48.238;11.160;2023-01-24T07:21:04;33.90;;;14.60;;
5704;SDS011;2877;48.238;11.160;2023-01-24T07:23:30;37.40;;;13.07;;
5704;SDS011;2877;48.238;11.160;2023-01-24T07:25:57;26.70;;;12.63;;
5704;SDS011;2877;48.238;11.160;2023-01-24T07:28:24;28.50;;;13.80;;
5704;SDS011;2877;48.238;11.160;2023-01-24T07:30:51;32.00;;;13.67;;
5704;SDS011;2877;48.238;11.160;2023-01-24T07:33:17;29.50;;;14.27;;
5704;SDS011;2877;48.238;11.160;2023-01-24T07:35:43;31.77;;;13.33;;
5704;SDS011;2877;48.238;11.160;2023-01-24T07:38:09;30.13;;;13.37;;
5704;SDS011;2877;48.238;11.160;2023-01-24T07:40:36;27.20;;;13.50;;
5704;SDS011;2877;48.238;11.160;2023-01-24T07:43:03;38.10;;;14.70;;
5704;SDS011;2877;48.238;11.160;2023-01-24T07:45:30;31.00;;;14.33;;
5704;SDS011;2877;48.238;11.160;2023-01-24T07:47:57;31.70;;;13.30;;
5704;SDS011;2877;48.238;11.160;2023-01-24T07:50:23;31.23;;;13.07;;
5704;SDS011;2877;48.238;11.160;2023-01-24T07:52:52;30.23;;;14.20;;
5704;SDS011;2877;48.238;11.160;2023-01-24T07:55:18;27.90;;;12.87;;
5704;SDS011;2877;48.238;11.160;2023-01-24T07:57:44;28.57;;;14.43;;
5704;SDS011;2877;48.238;11.160;2023-01-24T08:00:10;27.90;;;13.90;;
5704;SDS011;2877;48.238;11.160;2023-01-24T08:02:36;27.10;;;13.03;;
5704;SDS011;2877;48.238;11.160;2023-01-24T08:05:02;27.80;;;12.30;;
5704;SDS011;2877;48.238;11.160;2023-01-24T08:07:28;29.07;;;11.93;;
5704;SDS011;2877;48.238;11.160;2023-01-24T08:09:53;31.07;;;13.20;;
5704;SDS011;2877;48.238;11.160;2023-01-24T08:12:19;29.30;;;13.20;;
5704;SDS011;2877;48.238;11.160;2023-01-24T08:14:44;24.70;;;12.60;;
5704;SDS011;2877;48.238;11.160;2023-01-24T08:17:10;32.00;;;13.30;;
5704;SDS011;2877;48.238;11.160;2023-01-24T08:19:35;32.30;;;13.87;;
5704;SDS011;2877;48.238;11.160;2023-01-24T08:22:02;27.30;;;12.57;;
5704;SDS011;2877;48.238;11.160;2023-01-24T08:24:28;28.70;;;14.10;;
5704;SDS011;2877;48.238;11.160;2023-01-24T08:26:55;26.13;;;13.33;;
5704;SDS011;2877;48.238;11.160;2023-01-24T08:29:21;28.40;;;11.93;;
5704;SDS011;2877;48.238;11.160;2023-01-24T08:31:47;29.03;;;12.30;;
5704;SDS011;2877;48.238;11.160;2023-01-24T08:34:14;29.80;;;13.70;;
5704;SDS011;2877;48.238;11.160;2023-01-24T08:36:40;29.53;;;12.37;;
5704;SDS011;2877;48.238;11.160;2023-01-24T08:39:06;28.70;;;12.60;;
5704;SDS011;2877;48.238;11.160;2023-01-24T08:41:31;27.17;;;13.07;;
5704;SDS011;2877;48.238;11.160;2023-01-24T08:43:57;28.10;;;13.80;;
5704;SDS011;2877;48.238;11.160;2023-01-24T08:46:22;28.10;;;12.67;;
5704;SDS011;2877;48.238;11.160;2023-01-24T08:48:48;33.83;;;13.37;;
5704;SDS011;2877;48.238;11.160;2023-01-24T08:51:13;20.90;;;10.90;;
5704;SDS011;2877;48.238;11.160;2023-01-24T08:53:39;30.20;;;12.43;;
5704;SDS011;2877;48.238;11.160;2023-01-24T08:56:05;25.23;;;12.10;;
5704;SDS011;2877;48.238;11.160;2023-01-24T08:58:31;27.13;;;12.17;;
5704;SDS011;2877;48.238;11.160;2023-01-24T09:00:58;22.23;;;12.10;;
5704;SDS011;2877;48.238;11.160;2023-01-24T09:03:24;27.43;;;12.80;;
5704;SDS011;2877;48.238;11.160;2023-01-24T09:05:54;30.13;;;12.33;;
5704;SDS011;2877;48.238;11.160;2023-01-24T09:08:22;25.83;;;11.10;;
5704;SDS011;2877;48.238;11.160;2023-01-24T09:10:47;24.50;;;12.07;;
5704;SDS011;2877;48.238;11.160;2023-01-24T09:13:13;28.70;;;11.53;;
5704;SDS011;2877;48.238;11.160;2023-01-24T09:15:39;24.67;;;11.57;;
5704;SDS011;2877;48.238;11.160;2023-01-24T09:18:04;26.13;;;11.13;;
5704;SDS011;2877;48.238;11.160;2023-01-24T09:20:30;26.17;;;11.57;;
5704;SDS011;2877;48.238;11.160;2023-01-24T09:22:55;31.10;;;11.77;;
5704;SDS011;2877;48.238;11.160;2023-01-24T09:25:21;27.33;;;11.10;;
5704;SDS011;2877;48.238;11.160;2023-01-24T09:27:53;32.13;;;13.00;;
5704;SDS011;2877;48.238;11.160;2023-01-24T09:30:20;25.40;;;11.40;;
5704;SDS011;2877;48.238;11.160;2023-01-24T09:32:47;26.43;;;12.03;;
5704;SDS011;2877;48.238;11.160;2023-01-24T09:35:13;26.00;;;12.73;;
5704;SDS011;2877;48.238;11.160;2023-01-24T09:37:38;26.47;;;12.60;;
5704;SDS011;2877;48.238;11.160;2023-01-24T09:40:05;24.83;;;10.87;;
5704;SDS011;2877;48.238;11.160;2023-01-24T09:42:44;26.23;;;11.73;;
5704;SDS011;2877;48.238;11.160;2023-01-24T09:45:22;24.43;;;12.30;;
5704;SDS011;2877;48.238;11.160;2023-01-24T09:47:57;22.27;;;11.23;;
5704;SDS011;2877;48.238;11.160;2023-01-24T09:53:21;25.53;;;11.47;;
5704;SDS011;2877;48.238;11.160;2023-01-24T09:55:50;28.63;;;12.10;;
5704;SDS011;2877;48.238;11.160;2023-01-24T09:58:33;23.93;;;11.80;;
5704;SDS011;2877;48.238;11.160;2023-01-24T10:01:08;24.00;;;13.40;;
5704;SDS011;2877;48.238;11.160;2023-01-24T10:03:36;23.87;;;11.70;;
5704;SDS011;2877;48.238;11.160;2023-01-24T10:06:07;21.60;;;11.97;;
5704;SDS011;2877;48.238;11.160;2023-01-24T10:08:45;27.83;;;11.60;;
5704;SDS011;2877;48.238;11.160;2023-01-24T10:22:20;26.70;;;11.97;;
5704;SDS011;2877;48.238;11.160;2023-01-24T10:25:13;22.07;;;11.97;;
5704;SDS011;2877;48.238;11.160;2023-01-24T10:27:45;22.50;;;11.60;;
5704;SDS011;2877;48.238;11.160;2023-01-24T10:32:38;24.90;;;12.03;;
5704;SDS011;2877;48.238;11.160;2023-01-24T10:35:13;25.17;;;12.30;;
5704;SDS011;2877;48.238;11.160;2023-01-24T10:37:42;29.60;;;13.60;;
5704;SDS011;2877;48.238;11.160;2023-01-24T10:40:13;25.90;;;12.30;;
5704;SDS011;2877;48.238;11.160;2023-01-24T10:42:41;26.27;;;12.10;;
5704;SDS011;2877;48.238;11.160;2023-01-24T10:47:43;27.03;;;13.83;;
5704;SDS011;2877;48.238;11.160;2023-01-24T10:50:13;27.87;;;13.37;;
5704;SDS011;2877;48.238;11.160;2023-01-24T10:52:41;28.07;;;12.03;;
5704;SDS011;2877;48.238;11.160;2023-01-24T10:55:21;23.60;;;12.63;;
5704;SDS011;2877;48.238;11.160;2023-01-24T10:58:22;22.53;;;12.70;;
5704;SDS011;2877;48.238;11.160;2023-01-24T11:00:57;21.10;;;11.80;;
5704;SDS011;2877;48.238;11.160;2023-01-24T11:03:28;19.83;;;11.77;;
5704;SDS011;2877;48.238;11.160;2023-01-24T11:05:56;23.00;;;11.43;;
5704;SDS011;2877;48.238;11.160;2023-01-24T11:10:54;23.77;;;11.17;;
5704;SDS011;2877;48.238;11.160;2023-01-24T11:15:55;25.03;;;12.60;;
5704;SDS011;2877;48.238;11.160;2023-01-24T11:18:26;25.67;;;12.00;;
5704;SDS011;2877;48.238;11.160;2023-01-24T11:23:39;22.30;;;11.20;;
5704;SDS011;2877;48.238;11.160;2023-01-24T11:26:06;20.40;;;11.93;;
5704;SDS011;2877;48.238;11.160;2023-01-24T11:28:44;20.10;;;11.17;;
5704;SDS011;2877;48.238;11.160;2023-01-24T11:42:50;18.60;;;11.37;;
5704;SDS011;2877;48.238;11.160;2023-01-24T11:48:20;21.90;;;12.10;;
5704;SDS011;2877;48.238;11.160;2023-01-24T11:53:52;18.80;;;11.37;;
5704;SDS011;2877;48.238;11.160;2023-01-24T12:06:00;23.00;;;12.17;;
5704;SDS011;2877;48.238;11.160;2023-01-24T12:08:58;19.60;;;10.17;;
5704;SDS011;2877;48.238;11.160;2023-01-24T12:11:49;19.70;;;11.20;;
5704;SDS011;2877;48.238;11.160;2023-01-24T12:14:47;18.00;;;10.77;;
5704;SDS011;2877;48.238;11.160;2023-01-24T12:17:26;22.67;;;12.10;;
5704;SDS011;2877;48.238;11.160;2023-01-24T12:23:11;21.47;;;11.27;;
5704;SDS011;2877;48.238;11.160;2023-01-24T12:25:39;23.33;;;12.00;;
5704;SDS011;2877;48.238;11.160;2023-01-24T12:28:11;20.63;;;10.33;;
5704;SDS011;2877;48.238;11.160;2023-01-24T12:30:43;28.83;;;13.00;;
5704;SDS011;2877;48.238;11.160;2023-01-24T12:33:30;18.40;;;10.30;;
5704;SDS011;2877;48.238;11.160;2023-01-24T12:36:31;19.83;;;10.10;;
5704;SDS011;2877;48.238;11.160;2023-01-24T12:39:05;23.40;;;10.50;;
5704;SDS011;2877;48.238;11.160;2023-01-24T12:41:38;22.10;;;12.07;;
5704;SDS011;2877;48.238;11.160;2023-01-24T12:44:25;24.07;;;11.43;;
5704;SDS011;2877;48.238;11.160;2023-01-24T12:49:31;28.00;;;13.67;;
5704;SDS011;2877;48.238;11.160;2023-01-24T12:55:16;21.03;;;11.60;;
5704;SDS011;2877;48.238;11.160;2023-01-24T12:58:09;19.03;;;10.77;;
5704;SDS011;2877;48.238;11.160;2023-01-24T13:06:02;18.13;;;10.40;;
5704;SDS011;2877;48.238;11.160;2023-01-24T13:08:44;18.03;;;9.93;;
5704;SDS011;2877;48.238;11.160;2023-01-24T13:11:22;21.90;;;10.47;;
5704;SDS011;2877;48.238;11.160;2023-01-24T13:16:30;23.13;;;9.97;;
5704;SDS011;2877;48.238;11.160;2023-01-24T13:22:21;19.80;;;11.30;;
5704;SDS011;2877;48.238;11.160;2023-01-24T13:24:53;16.53;;;9.93;;
5704;SDS011;2877;48.238;11.160;2023-01-24T13:32:51;20.13;;;11.40;;
5704;SDS011;2877;48.238;11.160;2023-01-24T13:35:21;17.80;;;10.83;;
5704;SDS011;2877;48.238;11.160;2023-01-24T13:37:53;15.10;;;10.30;;
5704;SDS011;2877;48.238;11.160;2023-01-24T13:40:28;16.67;;;10.20;;
5704;SDS011;2877;48.238;11.160;2023-01-24T13:42:59;16.63;;;10.60;;
5704;SDS011;2877;48.238;11.160;2023-01-24T13:45:48;19.77;;;10.60;;
5704;SDS011;2877;48.238;11.160;2023-01-24T13:56:30;17.73;;;10.50;;
5704;SDS011;2877;48.238;11.160;2023-01-24T13:58:55;21.70;;;11.33;;
5704;SDS011;2877;48.238;11.160;2023-01-24T14:01:23;18.20;;;10.70;;
5704;SDS011;2877;48.238;11.160;2023-01-24T14:03:53;25.20;;;10.70;;
5704;SDS011;2877;48.238;11.160;2023-01-24T14:06:24;18.80;;;10.93;;
5704;SDS011;2877;48.238;11.160;2023-01-24T14:09:00;21.73;;;12.43;;
5704;SDS011;2877;48.238;11.160;2023-01-24T14:11:30;20.13;;;12.07;;
5704;SDS011;2877;48.238;11.160;2023-01-24T14:13:59;17.10;;;10.60;;
5704;SDS011;2877;48.238;11.160;2023-01-24T14:19:18;16.70;;;10.77;;
5704;SDS011;2877;48.238;11.160;2023-01-24T14:22:22;16.80;;;10.97;;
5704;SDS011;2877;48.238;11.160;2023-01-24T14:27:34;17.60;;;10.60;;
5704;SDS011;2877;48.238;11.160;2023-01-24T14:30:23;15.43;;;9.77;;
5704;SDS011;2877;48.238;11.160;2023-01-24T14:33:20;17.27;;;10.87;;
5704;SDS011;2877;48.238;11.160;2023-01-24T14:36:12;20.10;;;12.10;;
5704;SDS011;2877;48.238;11.160;2023-01-24T14:38:46;19.30;;;11.07;;
5704;SDS011;2877;48.238;11.160;2023-01-24T14:41:18;19.13;;;11.60;;
5704;SDS011;2877;48.238;11.160;2023-01-24T14:43:46;20.00;;;9.70;;
5704;SDS011;2877;48.238;11.160;2023-01-24T14:46:12;19.90;;;10.60;;
5704;SDS011;2877;48.238;11.160;2023-01-24T14:48:46;18.07;;;10.67;;
5704;SDS011;2877;48.238;11.160;2023-01-24T14:51:13;19.27;;;11.23;;
5704;SDS011;2877;48.238;11.160;2023-01-24T14:53:45;16.97;;;10.33;;
5704;SDS011;2877;48.238;11.160;2023-01-24T14:56:12;18.67;;;11.37;;
5704;SDS011;2877;48.238;11.160;2023-01-24T14:58:39;18.20;;;9.80;;
5704;SDS011;2877;48.238;11.160;2023-01-24T15:01:20;15.30;;;10.60;;
5704;SDS011;2877;48.238;11.160;2023-01-24T15:03:52;18.47;;;10.50;;
5704;SDS011;2877;48.238;11.160;2023-01-24T15:06:20;15.70;;;10.37;;
5704;SDS011;2877;48.238;11.160;2023-01-24T15:08:47;17.53;;;10.67;;
5704;SDS011;2877;48.238;11.160;2023-01-24T15:11:20;18.27;;;10.90;;
5704;SDS011;2877;48.238;11.160;2023-01-24T15:13:49;20.80;;;11.03;;
5704;SDS011;2877;48.238;11.160;2023-01-24T15:16:21;14.63;;;9.33;;
5704;SDS011;2877;48.238;11.160;2023-01-24T15:18:49;19.90;;;10.00;;
5704;SDS011;2877;48.238;11.160;2023-01-24T15:21:19;17.13;;;10.57;;
5704;SDS011;2877;48.238;11.160;2023-01-24T15:23:52;16.57;;;10.20;;
5704;SDS011;2877;48.238;11.160;2023-01-24T15:26:41;15.57;;;10.50;;
5704;SDS011;2877;48.238;11.160;2023-01-24T15:35:12;17.93;;;10.33;;
5704;SDS011;2877;48.238;11.160;2023-01-24T15:37:40;19.77;;;10.90;;
5704;SDS011;2877;48.238;11.160;2023-01-24T15:40:12;18.40;;;11.00;;
5704;SDS011;2877;48.238;11.160;2023-01-24T15:42:43;16.87;;;10.97;;
5704;SDS011;2877;48.238;11.160;2023-01-24T15:45:28;16.27;;;10.23;;
5704;SDS011;2877;48.238;11.160;2023-01-24T15:48:11;20.73;;;10.50;;
5704;SDS011;2877;48.238;11.160;2023-01-24T15:50:37;17.20;;;10.67;;
5704;SDS011;2877;48.238;11.160;2023-01-24T15:53:36;21.10;;;10.93;;
5704;SDS011;2877;48.238;11.160;2023-01-24T15:56:25;22.00;;;11.27;;
5704;SDS011;2877;48.238;11.160;2023-01-24T15:58:51;21.77;;;11.40;;
5704;SDS011;2877;48.238;11.160;2023-01-24T16:01:16;20.10;;;11.70;;
5704;SDS011;2877;48.238;11.160;2023-01-24T16:03:42;25.10;;;13.20;;
5704;SDS011;2877;48.238;11.160;2023-01-24T16:06:08;25.77;;;12.10;;
5704;SDS011;2877;48.238;11.160;2023-01-24T16:08:33;27.27;;;13.67;;
5704;SDS011;2877;48.238;11.160;2023-01-24T16:10:59;24.47;;;13.70;;
5704;SDS011;2877;48.238;11.160;2023-01-24T16:15:57;22.97;;;13.00;;
5704;SDS011;2877;48.238;11.160;2023-01-24T16:18:24;20.50;;;11.93;;
5704;SDS011;2877;48.238;11.160;2023-01-24T16:20:50;25.63;;;12.70;;
5704;SDS011;2877;48.238;11.160;2023-01-24T16:23:16;23.40;;;12.70;;
5704;SDS011;2877;48.238;11.160;2023-01-24T16:25:42;23.00;;;12.93;;
5704;SDS011;2877;48.238;11.160;2023-01-24T16:28:10;24.30;;;13.60;;
5704;SDS011;2877;48.238;11.160;2023-01-24T16:30:45;23.50;;;12.43;;
5704;SDS011;2877;48.238;11.160;2023-01-24T16:33:12;22.80;;;13.50;;
5704;SDS011;2877;48.238;11.160;2023-01-24T16:35:38;27.93;;;13.87;;
5704;SDS011;2877;48.238;11.160;2023-01-24T16:38:04;23.47;;;14.83;;
5704;SDS011;2877;48.238;11.160;2023-01-24T16:40:29;23.23;;;13.50;;
5704;SDS011;2877;48.238;11.160;2023-01-24T16:42:55;20.23;;;13.33;;
5704;SDS011;2877;48.238;11.160;2023-01-24T16:45:21;27.57;;;13.37;;
5704;SDS011;2877;48.238;11.160;2023-01-24T16:47:52;24.27;;;12.97;;
5704;SDS011;2877;48.238;11.160;2023-01-24T16:50:18;21.90;;;12.50;;
5704;SDS011;2877;48.238;11.160;2023-01-24T16:52:44;21.07;;;12.60;;
5704;SDS011;2877;48.238;11.160;2023-01-24T16:55:10;24.67;;;13.40;;
5704;SDS011;2877;48.238;11.160;2023-01-24T16:57:35;22.80;;;13.70;;
5704;SDS011;2877;48.238;11.160;2023-01-24T17:00:02;25.13;;;13.20;;